Time;durP1;ratioP1;P1;durP2;ratioP2;P2;SDS_P1;SDS_P2;PMS_P1;PMS_P2;Temp;Humidity;BMP_temperature;BMP_pressure;BME280_temperature;BME280_humidity;BME280_pressure;Samples;Min_cycle;Max_cycle;Signal;HPM_P1;HPM_P2
2021/05/02 00:01:11;;;;;;;8.87;6.50;;;9.20;99.90;;;;;;5093420;28;20449;-68
2021/05/02 00:03:37;;;;;;;9.27;6.30;;;9.20;99.90;;;;;;5093378;28;20786;-68
2021/05/02 00:06:04;;;;;;;7.47;5.73;;;9.20;99.90;;;;;;5093196;28;20492;-67
2021/05/02 00:08:29;;;;;;;7.47;6.00;;;9.30;99.90;;;;;;5093042;28;20536;-67
2021/05/02 00:10:55;;;;;;;9.50;5.77;;;9.10;99.90;;;;;;5093376;28;20496;-68
2021/05/02 00:13:21;;;;;;;7.27;5.87;;;9.10;99.90;;;;;;5091670;28;20177;-67
2021/05/02 00:15:47;;;;;;;11.63;7.03;;;9.30;99.90;;;;;;5092997;28;20910;-68
2021/05/02 00:18:13;;;;;;;10.30;7.43;;;9.30;99.90;;;;;;5092940;28;20413;-68
2021/05/02 00:20:39;;;;;;;10.43;7.40;;;8.80;99.90;;;;;;5091578;28;20199;-68
2021/05/02 00:23:05;;;;;;;9.70;7.10;;;8.70;99.90;;;;;;5093241;28;20760;-68
2021/05/02 00:25:32;;;;;;;8.57;7.67;;;8.60;99.90;;;;;;5092798;28;20504;-68
2021/05/02 00:27:59;;;;;;;10.40;8.50;;;8.80;99.90;;;;;;5092848;28;20163;-68
2021/05/02 00:30:26;;;;;;;8.93;7.60;;;8.50;99.90;;;;;;5093123;28;20465;-67
2021/05/02 00:32:55;;;;;;;8.37;7.20;;;8.40;99.90;;;;;;5093401;28;20413;-68
2021/05/02 00:35:25;;;;;;;9.80;7.20;;;8.70;99.90;;;;;;5092732;28;20429;-67
2021/05/02 00:37:51;;;;;;;11.30;7.83;;;8.90;99.90;;;;;;5092778;28;20500;-67
2021/05/02 00:40:34;;;;;;;11.73;8.10;;;8.80;99.90;;;;;;5092660;28;20449;-67
2021/05/02 00:43:04;;;;;;;13.80;8.20;;;8.70;99.90;;;;;;5092919;28;20389;-67
2021/05/02 00:45:42;;;;;;;12.00;8.30;;;8.30;99.90;;;;;;5092667;28;20844;-68
2021/05/02 00:48:17;;;;;;;12.33;8.70;;;8.20;99.90;;;;;;5092798;28;20902;-68
2021/05/02 00:50:57;;;;;;;10.97;8.60;;;8.20;99.90;;;;;;5092924;28;20410;-67
2021/05/02 00:53:43;;;;;;;10.93;9.00;;;8.30;99.90;;;;;;5092952;28;20383;-68
2021/05/02 00:56:29;;;;;;;16.50;9.00;;;8.40;99.90;;;;;;5092658;28;20394;-68
2021/05/02 00:59:03;;;;;;;12.27;8.63;;;8.40;99.90;;;;;;5092662;28;20381;-68
2021/05/02 01:01:38;;;;;;;13.20;9.03;;;8.00;99.90;;;;;;5092610;28;20450;-67
2021/05/02 01:04:04;;;;;;;11.83;10.03;;;8.10;99.90;;;;;;5092702;28;20433;-68
2021/05/02 01:06:31;;;;;;;14.97;11.10;;;8.10;99.90;;;;;;5095083;28;20961;-68
2021/05/02 01:09:01;;;;;;;10.87;9.70;;;8.20;99.90;;;;;;5096349;28;20437;-68
2021/05/02 01:11:28;;;;;;;20.53;11.07;;;8.10;99.90;;;;;;5097012;28;20390;-68
2021/05/02 01:14:02;;;;;;;12.23;10.40;;;8.20;99.90;;;;;;5096339;28;20458;-67
2021/05/02 01:16:33;;;;;;;18.13;9.97;;;8.30;99.90;;;;;;5096561;28;20424;-68
2021/05/02 01:19:01;;;;;;;20.90;12.73;;;8.30;99.90;;;;;;5096321;28;20476;-67
2021/05/02 01:21:31;;;;;;;17.43;12.93;;;7.90;99.90;;;;;;5096192;28;20468;-68
2021/05/02 01:24:00;;;;;;;20.47;11.90;;;7.70;99.90;;;;;;5096164;28;20424;-68
2021/05/02 01:26:27;;;;;;;13.40;11.80;;;7.80;99.90;;;;;;5096421;28;20406;-68
2021/05/02 01:28:56;;;;;;;17.27;13.30;;;7.90;99.90;;;;;;5094822;28;20429;-67
2021/05/02 01:31:23;;;;;;;19.92;12.20;;;7.90;99.90;;;;;;5096119;28;20442;-67
2021/05/02 01:33:49;;;;;;;14.93;11.57;;;7.70;99.90;;;;;;5094702;28;20491;-68
2021/05/02 01:36:15;;;;;;;17.27;13.17;;;7.80;99.90;;;;;;5096008;28;20428;-68
2021/05/02 01:38:41;;;;;;;16.20;13.43;;;7.70;99.90;;;;;;5096165;28;20173;-68
2021/05/02 01:41:07;;;;;;;21.03;14.87;;;7.80;99.90;;;;;;5095773;28;20226;-67
2021/05/02 01:43:32;;;;;;;18.33;13.23;;;7.70;99.90;;;;;;5095917;28;20460;-67
2021/05/02 01:45:58;;;;;;;18.30;13.90;;;7.30;99.90;;;;;;5095814;28;20168;-67
2021/05/02 01:48:26;;;;;;;15.63;12.47;;;7.20;99.90;;;;;;5096009;28;20168;-67
2021/05/02 01:51:00;;;;;;;16.97;14.30;;;7.20;99.90;;;;;;5095639;28;20267;-67
2021/05/02 01:53:26;;;;;;;19.02;14.18;;;7.10;99.90;;;;;;5095687;28;20436;-67
2021/05/02 01:55:53;;;;;;;17.70;13.50;;;7.40;99.90;;;;;;5096595;28;20263;-67
2021/05/02 01:58:20;;;;;;;22.20;14.73;;;7.60;99.90;;;;;;5095526;28;20176;-67
2021/05/02 02:00:59;;;;;;;18.58;14.07;;;7.50;99.90;;;;;;5095434;28;20216;-67
2021/05/02 02:03:25;;;;;;;17.35;13.32;;;7.60;99.90;;;;;;5095698;28;20142;-67
2021/05/02 02:05:50;;;;;;;20.80;14.80;;;7.70;99.90;;;;;;5095484;28;20164;-67
2021/05/02 02:08:17;;;;;;;17.77;13.43;;;7.50;99.90;;;;;;5095328;28;20181;-67
2021/05/02 02:10:44;;;;;;;20.77;14.88;;;7.40;99.90;;;;;;5095345;28;20171;-67
2021/05/02 02:13:12;;;;;;;20.75;15.60;;;7.20;1.00;;;;;;5095575;28;20195;-67
2021/05/02 02:15:40;;;;;;;25.77;17.05;;;7.30;1.00;;;;;;5095258;28;20199;-67
2021/05/02 02:18:07;;;;;;;19.83;14.70;;;7.30;1.00;;;;;;5094374;28;20258;-67
2021/05/02 02:20:45;;;;;;;28.80;16.25;;;7.30;1.00;;;;;;5094918;28;20191;-67
2021/05/02 02:23:26;;;;;;;24.35;17.15;;;7.30;1.00;;;;;;5095222;28;20160;-67
2021/05/02 02:25:53;;;;;;;24.65;16.92;;;7.50;1.00;;;;;;5095204;28;20211;-67
2021/05/02 02:28:20;;;;;;;21.05;16.75;;;7.40;1.00;;;;;;5094814;28;20600;-67
2021/05/02 02:30:50;;;;;;;20.45;15.27;;;7.40;1.00;;;;;;5093546;28;20644;-67
2021/05/02 02:33:16;;;;;;;25.52;17.60;;;7.40;1.00;;;;;;5094834;28;20255;-67
2021/05/02 02:35:53;;;;;;;24.00;17.40;;;7.30;1.00;;;;;;5095251;28;20541;-69
2021/05/02 02:38:26;;;;;;;21.02;16.85;;;7.30;1.00;;;;;;5095062;28;20152;-69
2021/05/02 02:40:54;;;;;;;20.85;15.40;;;7.40;1.00;;;;;;5094882;28;20183;-68
2021/05/02 02:43:33;;;;;;;21.25;15.00;;;7.20;1.00;;;;;;5095023;28;20214;-67
2021/05/02 02:46:04;;;;;;;20.40;15.65;;;7.30;1.00;;;;;;5094589;28;20536;-68
2021/05/02 02:48:31;;;;;;;22.85;15.82;;;7.40;1.00;;;;;;5094803;28;20148;-67
2021/05/02 02:51:02;;;;;;;21.35;16.23;;;7.20;1.00;;;;;;5094408;28;20199;-67
2021/05/02 02:53:30;;;;;;;21.90;16.40;;;7.20;1.00;;;;;;5094384;28;20194;-67
2021/05/02 02:56:01;;;;;;;22.92;17.77;;;7.30;1.00;;;;;;5094433;28;20674;-67
2021/05/02 02:58:29;;;;;;;20.48;15.95;;;7.30;1.00;;;;;;5094485;28;20580;-67
2021/05/02 03:00:57;;;;;;;18.13;14.85;;;7.70;1.00;;;;;;5094096;28;20217;-67
2021/05/02 03:03:25;;;;;;;20.42;15.88;;;7.30;1.00;;;;;;5094098;28;20178;-68
2021/05/02 03:05:54;;;;;;;21.45;16.05;;;7.40;1.00;;;;;;5094086;28;20167;-68
2021/05/02 03:08:24;;;;;;;23.10;16.60;;;7.10;1.00;;;;;;5094015;28;20560;-68
2021/05/02 03:10:51;;;;;;;21.95;16.02;;;7.40;1.00;;;;;;5094022;28;20245;-68
2021/05/02 03:13:17;;;;;;;21.00;15.13;;;7.20;1.00;;;;;;5093956;28;20176;-68
2021/05/02 03:15:43;;;;;;;19.53;15.20;;;7.10;1.00;;;;;;5094301;28;20258;-68
2021/05/02 03:18:30;;;;;;;21.95;15.68;;;7.10;1.00;;;;;;5093944;28;20175;-68
2021/05/02 03:21:02;;;;;;;23.17;15.80;;;7.10;1.00;;;;;;5093747;28;20671;-68
2021/05/02 03:23:37;;;;;;;25.05;16.10;;;7.10;1.00;;;;;;5093981;28;20187;-68
2021/05/02 03:26:05;;;;;;;21.42;16.23;;;7.00;1.00;;;;;;5093807;28;20561;-68
2021/05/02 03:28:37;;;;;;;21.42;14.65;;;7.00;1.00;;;;;;5093522;28;20694;-68
2021/05/02 03:31:05;;;;;;;22.75;15.40;;;7.10;1.00;;;;;;5093132;28;20155;-68
2021/05/02 03:33:34;;;;;;;20.67;15.50;;;7.10;1.00;;;;;;5093495;28;20573;-68
2021/05/02 03:36:05;;;;;;;20.55;16.10;;;7.30;1.00;;;;;;5093920;28;20274;-68
2021/05/02 03:38:45;;;;;;;23.45;16.45;;;7.30;1.00;;;;;;5093766;28;20172;-68
2021/05/02 03:41:11;;;;;;;22.23;15.45;;;7.50;1.00;;;;;;5094187;28;20237;-68
2021/05/02 03:43:37;;;;;;;24.57;17.47;;;7.40;1.00;;;;;;5094298;28;20187;-67
2021/05/02 03:46:03;;;;;;;21.58;18.38;;;7.20;1.00;;;;;;5094363;28;20172;-68
2021/05/02 03:48:29;;;;;;;20.73;15.00;;;7.30;1.00;;;;;;5094518;28;20178;-68
2021/05/02 03:50:54;;;;;;;20.30;16.37;;;7.10;1.00;;;;;;5094341;28;20171;-68
2021/05/02 03:53:20;;;;;;;21.93;16.53;;;7.20;1.00;;;;;;5093491;28;20251;-68
2021/05/02 03:55:47;;;;;;;22.23;16.57;;;6.90;1.00;;;;;;5093975;28;20167;-68
2021/05/02 03:58:14;;;;;;;23.58;17.10;;;7.10;1.00;;;;;;5094190;28;20176;-68
2021/05/02 04:00:41;;;;;;;22.88;16.50;;;6.90;1.00;;;;;;5093739;28;20195;-67
2021/05/02 04:03:07;;;;;;;21.77;16.27;;;7.00;1.00;;;;;;5093229;28;20548;-67
2021/05/02 04:05:32;;;;;;;23.30;16.53;;;7.10;1.00;;;;;;5093342;28;20164;-67
2021/05/02 04:07:58;;;;;;;25.03;17.03;;;6.90;1.00;;;;;;5093100;28;20194;-68
2021/05/02 04:10:24;;;;;;;23.50;17.40;;;6.80;1.00;;;;;;5093800;28;20540;-69
2021/05/02 04:12:49;;;;;;;22.13;16.70;;;7.00;1.00;;;;;;5093904;28;20175;-71
2021/05/02 04:15:15;;;;;;;22.67;16.53;;;6.90;1.00;;;;;;5093095;28;20559;-67
2021/05/02 04:17:40;;;;;;;23.50;17.77;;;6.90;1.00;;;;;;5093291;28;20220;-68
2021/05/02 04:20:07;;;;;;;21.47;15.20;;;6.90;1.00;;;;;;5093141;28;20207;-68
2021/05/02 04:22:32;;;;;;;26.38;17.65;;;6.90;1.00;;;;;;5093401;28;20160;-68
2021/05/02 04:24:58;;;;;;;22.30;17.50;;;7.10;1.00;;;;;;5093324;28;20187;-67
2021/05/02 04:27:23;;;;;;;25.40;17.10;;;7.10;1.00;;;;;;5093003;28;20532;-68
2021/05/02 04:29:49;;;;;;;24.93;16.63;;;6.90;1.00;;;;;;5093620;28;20206;-67
2021/05/02 04:32:15;;;;;;;24.30;17.93;;;6.90;1.00;;;;;;5092976;28;20571;-67
2021/05/02 04:34:41;;;;;;;25.90;19.23;;;6.90;1.00;;;;;;5093163;28;20285;-66
2021/05/02 04:37:07;;;;;;;27.67;18.60;;;7.00;1.00;;;;;;5092961;28;20259;-67
2021/05/02 04:39:33;;;;;;;24.17;17.83;;;7.00;1.00;;;;;;5093245;28;20195;-67
2021/05/02 04:41:59;;;;;;;25.83;17.97;;;7.00;1.00;;;;;;5096028;28;20209;-67
2021/05/02 04:44:26;;;;;;;23.67;17.30;;;6.80;1.00;;;;;;5097001;28;20496;-68
2021/05/02 04:46:52;;;;;;;22.55;16.90;;;6.80;1.00;;;;;;5096985;28;20238;-68
2021/05/02 04:49:18;;;;;;;23.70;17.45;;;6.90;1.00;;;;;;5096985;28;20532;-68
2021/05/02 04:51:44;;;;;;;21.90;16.67;;;6.90;1.00;;;;;;5096969;28;20171;-67
2021/05/02 04:54:10;;;;;;;27.58;18.13;;;6.90;1.00;;;;;;5096592;28;20215;-67
2021/05/02 04:56:36;;;;;;;21.20;17.13;;;7.10;1.00;;;;;;5097025;28;20168;-67
2021/05/02 04:59:02;;;;;;;22.23;17.30;;;7.60;1.00;;;;;;5096761;28;20269;-67
2021/05/02 05:01:28;;;;;;;23.70;18.67;;;7.60;1.00;;;;;;5096762;28;20691;-68
2021/05/02 05:03:56;;;;;;;23.25;18.17;;;7.30;1.00;;;;;;5096659;28;20679;-68
2021/05/02 05:06:22;;;;;;;28.27;16.73;;;7.40;1.00;;;;;;5096651;28;20174;-67
2021/05/02 05:08:48;;;;;;;21.40;16.98;;;7.60;1.00;;;;;;5096529;28;20597;-68
2021/05/02 05:11:13;;;;;;;24.50;16.87;;;7.40;1.00;;;;;;5096597;28;20246;-67
2021/05/02 05:13:39;;;;;;;22.13;16.23;;;7.20;1.00;;;;;;5096393;28;20406;-67
2021/05/02 05:16:04;;;;;;;17.40;14.20;;;7.60;1.00;;;;;;5096454;28;20649;-67
2021/05/02 05:18:30;;;;;;;21.23;16.30;;;7.30;1.00;;;;;;5096370;28;20168;-66
2021/05/02 05:20:57;;;;;;;19.67;15.67;;;7.70;1.00;;;;;;5096323;28;20199;-67
2021/05/02 05:23:24;;;;;;;22.35;15.20;;;7.50;1.00;;;;;;5096645;28;20550;-67
2021/05/02 05:25:49;;;;;;;26.13;16.33;;;7.60;1.00;;;;;;5096615;28;20632;-68
2021/05/02 05:28:15;;;;;;;19.07;15.00;;;7.40;1.00;;;;;;5096263;28;20164;-68
2021/05/02 05:30:41;;;;;;;18.03;13.73;;;7.30;1.00;;;;;;5096231;28;20172;-67
2021/05/02 05:33:08;;;;;;;22.23;13.77;;;7.30;1.00;;;;;;5096243;28;20489;-68
2021/05/02 05:35:34;;;;;;;19.98;14.93;;;7.10;1.00;;;;;;5096109;28;20628;-68
2021/05/02 05:38:00;;;;;;;21.92;13.80;;;7.20;1.00;;;;;;5096032;28;20489;-67
2021/05/02 05:40:27;;;;;;;17.35;12.77;;;7.30;1.00;;;;;;5095944;28;20199;-67
2021/05/02 05:42:53;;;;;;;19.52;12.88;;;7.40;1.00;;;;;;5095857;28;20217;-67
2021/05/02 05:45:20;;;;;;;16.70;10.57;;;7.20;1.00;;;;;;5096109;28;20266;-68
2021/05/02 05:47:50;;;;;;;14.27;11.70;;;7.20;1.00;;;;;;5096087;28;20186;-67
2021/05/02 05:50:16;;;;;;;18.27;11.20;;;7.10;1.00;;;;;;5095791;28;20393;-68
2021/05/02 05:52:43;;;;;;;13.40;9.33;;;7.40;1.00;;;;;;5094608;28;20205;-67
2021/05/02 05:55:10;;;;;;;14.70;11.27;;;7.30;1.00;;;;;;5095501;28;20191;-68
2021/05/02 05:57:37;;;;;;;15.73;9.95;;;7.20;1.00;;;;;;5095882;28;20217;-67
2021/05/02 06:00:08;;;;;;;18.35;10.43;;;7.50;1.00;;;;;;5095786;28;20274;-68
2021/05/02 06:02:34;;;;;;;12.93;9.50;;;7.30;1.00;;;;;;5095535;28;20666;-67
2021/05/02 06:05:00;;;;;;;18.20;10.33;;;7.20;1.00;;;;;;5095505;28;20211;-68
2021/05/02 06:07:25;;;;;;;17.17;10.50;;;7.20;1.00;;;;;;5095371;28;20381;-68
2021/05/02 06:09:51;;;;;;;16.70;10.47;;;7.10;1.00;;;;;;5095397;28;20213;-67
2021/05/02 06:12:16;;;;;;;16.80;9.80;;;7.10;1.00;;;;;;5095405;28;20171;-67
2021/05/02 06:14:42;;;;;;;12.37;8.23;;;7.30;1.00;;;;;;5095339;28;20521;-68
2021/05/02 06:17:08;;;;;;;15.30;10.60;;;7.10;1.00;;;;;;5095280;28;20199;-68
2021/05/02 06:19:34;;;;;;;14.03;10.50;;;7.30;1.00;;;;;;5095450;28;20179;-68
2021/05/02 06:21:59;;;;;;;12.83;9.50;;;7.20;1.00;;;;;;5095239;28;20206;-68
2021/05/02 06:24:25;;;;;;;15.20;8.97;;;7.20;1.00;;;;;;5095065;28;20748;-68
2021/05/02 06:26:50;;;;;;;15.20;10.00;;;7.50;1.00;;;;;;5095426;28;20195;-68
2021/05/02 06:29:17;;;;;;;14.40;9.63;;;7.30;1.00;;;;;;5095061;28;20164;-67
2021/05/02 06:31:43;;;;;;;14.68;8.88;;;7.20;1.00;;;;;;5094969;28;20168;-68
2021/05/02 06:34:08;;;;;;;11.52;9.35;;;7.60;1.00;;;;;;5094924;28;20686;-68
2021/05/02 06:36:34;;;;;;;14.63;9.40;;;7.70;1.00;;;;;;5095023;28;20172;-68
2021/05/02 06:38:59;;;;;;;13.47;8.80;;;7.20;1.00;;;;;;5094838;28;20207;-68
2021/05/02 06:41:25;;;;;;;13.63;7.70;;;7.60;1.00;;;;;;5094511;28;20210;-68
2021/05/02 06:43:51;;;;;;;13.20;8.00;;;7.40;1.00;;;;;;5094576;28;20656;-68
2021/05/02 06:46:29;;;;;;;13.73;8.30;;;7.30;1.00;;;;;;5094832;28;20250;-67
2021/05/02 06:49:03;;;;;;;10.15;7.28;;;7.80;1.00;;;;;;5094654;28;20583;-68
2021/05/02 06:51:28;;;;;;;11.43;7.50;;;7.40;1.00;;;;;;5094461;28;20152;-68
2021/05/02 06:53:57;;;;;;;11.63;8.27;;;7.40;1.00;;;;;;5094956;28;20278;-68
2021/05/02 06:56:24;;;;;;;11.00;7.82;;;7.50;1.00;;;;;;5094373;28;20159;-68
2021/05/02 06:58:54;;;;;;;12.45;7.25;;;7.30;1.00;;;;;;5094458;28;20174;-68
2021/05/02 07:01:21;;;;;;;9.48;7.15;;;7.60;1.00;;;;;;5094395;28;20249;-68
2021/05/02 07:03:46;;;;;;;11.25;7.63;;;7.70;1.00;;;;;;5092495;28;20187;-67
2021/05/02 07:06:12;;;;;;;9.47;5.60;;;7.80;1.00;;;;;;5094417;28;20267;-68
2021/05/02 07:08:37;;;;;;;11.53;6.63;;;7.50;1.00;;;;;;5094034;28;20183;-68
2021/05/02 07:11:03;;;;;;;11.90;6.50;;;7.80;1.00;;;;;;5093979;28;20183;-67
2021/05/02 07:13:29;;;;;;;13.80;6.65;;;7.60;1.00;;;;;;5094287;28;20199;-68
2021/05/02 07:15:57;;;;;;;13.70;5.97;;;7.80;1.00;;;;;;5094046;28;20504;-68
2021/05/02 07:18:23;;;;;;;7.43;5.18;;;8.10;1.00;;;;;;5093935;28;20164;-68
2021/05/02 07:20:51;;;;;;;11.43;5.37;;;7.70;1.00;;;;;;5093853;28;20199;-68
2021/05/02 07:23:17;;;;;;;14.82;5.95;;;8.00;1.00;;;;;;5093620;28;20413;-68
2021/05/02 07:25:43;;;;;;;9.33;5.67;;;8.30;99.90;;;;;;5093739;28;20170;-68
2021/05/02 07:28:09;;;;;;;8.17;4.63;;;8.70;99.90;;;;;;5093971;28;20205;-68
2021/05/02 07:30:35;;;;;;;6.25;4.25;;;8.50;99.90;;;;;;5095023;28;20175;-68
2021/05/02 07:33:00;;;;;;;8.80;4.90;;;8.60;99.90;;;;;;5092471;28;20177;-66
2021/05/02 07:35:26;;;;;;;7.70;4.70;;;8.90;99.90;;;;;;5093575;28;20408;-66
2021/05/02 07:37:51;;;;;;;5.67;4.13;;;8.80;99.90;;;;;;5093635;28;20175;-67
2021/05/02 07:40:17;;;;;;;7.13;4.10;;;9.10;99.90;;;;;;5093516;28;20199;-67
2021/05/02 07:42:43;;;;;;;5.07;3.80;;;9.00;99.90;;;;;;5093823;28;20171;-68
2021/05/02 07:45:08;;;;;;;7.00;3.70;;;8.30;99.90;;;;;;5093566;28;20592;-67
2021/05/02 07:47:35;;;;;;;4.17;3.63;;;8.80;99.90;;;;;;5093467;28;20168;-67
2021/05/02 07:50:02;;;;;;;7.13;3.75;;;8.80;99.90;;;;;;5093429;28;20163;-67
2021/05/02 07:52:28;;;;;;;7.10;4.00;;;8.90;99.90;;;;;;5093400;28;20194;-67
2021/05/02 07:54:53;;;;;;;7.33;3.30;;;8.80;99.90;;;;;;5093755;28;20188;-67
2021/05/02 07:57:19;;;;;;;5.20;3.57;;;8.90;99.90;;;;;;5093513;28;20242;-66
2021/05/02 07:59:44;;;;;;;6.30;3.40;;;8.80;99.90;;;;;;5093327;28;20164;-67
2021/05/02 08:02:10;;;;;;;6.57;3.80;;;8.80;99.90;;;;;;5093246;28;20164;-67
2021/05/02 08:04:38;;;;;;;4.93;3.13;;;9.20;99.90;;;;;;5093270;28;20188;-67
2021/05/02 08:07:08;;;;;;;4.75;3.20;;;9.70;99.90;;;;;;5093211;28;20474;-67
2021/05/02 08:09:33;;;;;;;3.80;2.80;;;9.00;99.90;;;;;;5092855;28;20185;-67
2021/05/02 08:12:00;;;;;;;6.03;2.80;;;9.30;99.90;;;;;;5092752;28;20229;-67
2021/05/02 08:14:25;;;;;;;4.90;2.28;;;8.80;99.90;;;;;;5092989;28;20432;-67
2021/05/02 08:16:51;;;;;;;5.93;2.50;;;9.50;99.90;;;;;;5092148;28;20246;-67
2021/05/02 08:19:16;;;;;;;4.40;2.80;;;9.40;99.90;;;;;;5092739;28;20178;-67
2021/05/02 08:21:42;;;;;;;5.13;3.10;;;8.90;99.90;;;;;;5092767;28;20193;-66
2021/05/02 08:24:08;;;;;;;6.97;3.07;;;8.90;99.90;;;;;;5093171;28;20224;-67
2021/05/02 08:26:33;;;;;;;4.40;3.27;;;9.00;99.90;;;;;;5093097;28;20167;-67
2021/05/02 08:28:59;;;;;;;7.07;3.13;;;8.90;99.90;;;;;;5092739;28;20497;-67
2021/05/02 08:31:26;;;;;;;3.37;2.60;;;9.40;99.90;;;;;;5092887;28;20178;-67
2021/05/02 08:33:52;;;;;;;7.53;2.50;;;9.70;99.90;;;;;;5092766;28;20183;-67
2021/05/02 08:36:17;;;;;;;2.90;2.47;;;10.00;99.90;;;;;;5092887;28;20173;-67
2021/05/02 08:38:43;;;;;;;6.70;2.83;;;10.40;99.90;;;;;;5092725;28;20171;-67
2021/05/02 08:41:09;;;;;;;3.65;2.92;;;10.20;99.90;;;;;;5092862;28;20230;-67
2021/05/02 08:43:35;;;;;;;4.47;3.17;;;9.90;99.90;;;;;;5092712;28;20202;-67
2021/05/02 08:46:02;;;;;;;4.30;3.10;;;10.30;99.90;;;;;;5092962;28;20222;-67
2021/05/02 08:48:27;;;;;;;5.37;2.83;;;11.10;99.90;;;;;;5092564;28;20797;-67
2021/05/02 08:50:58;;;;;;;4.60;2.90;;;10.80;99.90;;;;;;5092704;28;20408;-68
2021/05/02 08:53:25;;;;;;;8.57;2.93;;;10.80;99.90;;;;;;5092864;28;20163;-67
2021/05/02 08:55:52;;;;;;;5.83;2.47;;;10.30;99.90;;;;;;5092890;28;20380;-67
2021/05/02 08:58:19;;;;;;;11.55;2.53;;;9.50;99.90;;;;;;5092865;28;20409;-67
2021/05/02 09:00:46;;;;;;;2.72;2.00;;;9.30;99.90;;;;;;5092419;28;20682;-67
2021/05/02 09:03:12;;;;;;;3.57;2.37;;;9.20;99.90;;;;;;5092693;28;20263;-67
2021/05/02 09:05:45;;;;;;;4.60;2.60;;;9.40;99.90;;;;;;5092568;28;20504;-68
2021/05/02 09:08:32;;;;;;;6.20;2.85;;;9.20;99.90;;;;;;5092682;28;20610;-68
2021/05/02 09:10:58;;;;;;;3.43;2.60;;;9.90;99.90;;;;;;5092652;28;20240;-69
2021/05/02 09:13:25;;;;;;;7.60;2.92;;;10.00;99.90;;;;;;5092764;28;20409;-69
2021/05/02 09:16:17;;;;;;;3.17;1.80;;;9.50;99.90;;;;;;5092698;28;20163;-68
2021/05/02 09:18:49;;;;;;;10.18;2.60;;;9.10;99.90;;;;;;5088693;28;20191;-68
2021/05/02 09:21:27;;;;;;;2.80;2.22;;;9.40;99.90;;;;;;5092456;28;20207;-68
2021/05/02 09:23:56;;;;;;;11.37;2.17;;;10.10;99.90;;;;;;5092581;28;20181;-68
2021/05/02 09:26:24;;;;;;;2.30;1.90;;;10.10;99.90;;;;;;5092762;28;20468;-68
2021/05/02 09:28:55;;;;;;;5.57;2.10;;;9.50;99.90;;;;;;5096092;28;20238;-68
2021/05/02 09:31:27;;;;;;;5.13;2.50;;;9.30;99.90;;;;;;5096503;28;20617;-68
2021/05/02 09:33:54;;;;;;;4.47;2.30;;;9.50;99.90;;;;;;5096277;28;20482;-67
2021/05/02 09:36:21;;;;;;;3.67;2.75;;;9.80;99.90;;;;;;5095983;28;20274;-68
2021/05/02 09:38:48;;;;;;;5.28;3.30;;;10.30;99.90;;;;;;5096636;28;20167;-68
2021/05/02 09:41:15;;;;;;;2.72;2.35;;;9.70;99.90;;;;;;5096080;28;20192;-66
2021/05/02 09:43:51;;;;;;;3.67;2.67;;;9.50;99.90;;;;;;5095721;28;20199;-67
2021/05/02 09:46:27;;;;;;;5.35;2.92;;;9.90;99.90;;;;;;5095766;28;20234;-68
2021/05/02 09:49:18;;;;;;;3.63;2.15;;;9.90;99.90;;;;;;5096358;28;20172;-68
2021/05/02 09:51:54;;;;;;;5.20;3.13;;;10.20;99.90;;;;;;5095975;28;20187;-68
2021/05/02 09:54:21;;;;;;;7.43;2.37;;;11.10;99.90;;;;;;5095793;28;20468;-68
2021/05/02 09:56:52;;;;;;;6.80;2.53;;;10.50;99.90;;;;;;5095876;28;20554;-68
2021/05/02 09:59:27;;;;;;;3.70;2.43;;;10.60;99.90;;;;;;5095567;28;20384;-68
2021/05/02 10:02:13;;;;;;;3.40;2.30;;;10.40;99.90;;;;;;5096031;28;20455;-67
2021/05/02 10:04:46;;;;;;;6.33;2.40;;;10.60;99.90;;;;;;5095437;28;20424;-68
2021/05/02 10:07:14;;;;;;;2.73;1.87;;;10.90;99.90;;;;;;5095169;28;20488;-68
2021/05/02 10:09:40;;;;;;;3.23;2.50;;;11.00;99.90;;;;;;5095275;28;20429;-68
2021/05/02 10:12:07;;;;;;;4.93;2.33;;;10.80;99.90;;;;;;5095249;28;20411;-68
2021/05/02 10:14:34;;;;;;;4.10;2.13;;;10.50;99.90;;;;;;5095157;28;20419;-68
2021/05/02 10:17:00;;;;;;;4.70;2.07;;;10.70;99.90;;;;;;5095764;28;20479;-68
2021/05/02 10:19:30;;;;;;;5.43;2.07;;;10.60;99.90;;;;;;5095219;28;20435;-67
2021/05/02 10:21:56;;;;;;;4.90;2.37;;;10.70;99.90;;;;;;5094925;28;20457;-67
2021/05/02 10:24:22;;;;;;;3.30;2.27;;;12.00;99.90;;;;;;5095276;28;20470;-67
2021/05/02 10:26:50;;;;;;;8.73;3.13;;;12.60;99.90;;;;;;5095269;28;20167;-67
2021/05/02 10:29:26;;;;;;;4.60;2.83;;;12.50;99.90;;;;;;5094939;28;20401;-68
2021/05/02 10:31:59;;;;;;;4.03;2.70;;;11.50;99.90;;;;;;5093572;28;20412;-66
2021/05/02 10:34:30;;;;;;;2.73;2.07;;;11.40;99.90;;;;;;5095083;28;20425;-67
2021/05/02 10:37:23;;;;;;;2.83;2.37;;;11.00;99.90;;;;;;5095011;28;20444;-68
2021/05/02 10:40:08;;;;;;;5.37;2.47;;;11.10;99.90;;;;;;5094355;28;20421;-68
2021/05/02 10:42:39;;;;;;;2.50;2.23;;;11.00;99.90;;;;;;5094711;28;20486;-67
2021/05/02 10:45:33;;;;;;;5.13;2.43;;;10.60;99.90;;;;;;5094867;28;20424;-67
2021/05/02 10:48:04;;;;;;;4.53;2.70;;;11.10;99.90;;;;;;5094538;28;20488;-67
2021/05/02 10:50:35;;;;;;;4.83;2.07;;;11.90;99.90;;;;;;5094696;28;20409;-67
2021/05/02 10:53:06;;;;;;;3.80;2.00;;;11.30;99.90;;;;;;5094277;28;20708;-68
2021/05/02 10:56:01;;;;;;;2.83;1.77;;;12.00;99.90;;;;;;5094372;28;20853;-67
2021/05/02 10:58:38;;;;;;;3.70;2.00;;;12.00;99.90;;;;;;5094479;28;20827;-67
2021/05/02 11:01:08;;;;;;;2.43;1.53;;;11.60;99.90;;;;;;5094343;28;20490;-67
2021/05/02 11:03:36;;;;;;;3.23;2.07;;;11.20;99.90;;;;;;5094493;28;20445;-67
2021/05/02 11:06:10;;;;;;;3.20;1.77;;;11.70;99.90;;;;;;5094210;28;20905;-67
2021/05/02 11:08:57;;;;;;;4.17;1.77;;;11.90;99.90;;;;;;5094120;28;20937;-67
2021/05/02 11:11:29;;;;;;;6.70;1.80;;;11.90;99.90;;;;;;5094482;28;20967;-66
2021/05/02 11:14:07;;;;;;;5.70;1.80;;;11.80;99.90;;;;;;5094310;28;20460;-67
2021/05/02 11:16:53;;;;;;;5.43;1.43;;;12.10;99.90;;;;;;5094459;28;20413;-67
2021/05/02 11:19:39;;;;;;;4.37;1.97;;;12.80;99.90;;;;;;5079678;28;20413;-67
2021/05/02 11:22:11;;;;;;;2.63;2.00;;;11.60;99.90;;;;;;5094315;28;20437;-67
2021/05/02 11:24:40;;;;;;;4.20;1.87;;;11.80;99.90;;;;;;5093794;28;20418;-67
2021/05/02 11:27:23;;;;;;;2.97;1.93;;;12.30;99.90;;;;;;5093986;28;20507;-67
2021/05/02 11:32:26;;;;;;;4.00;2.10;;;11.50;99.90;;;;;;5094174;28;20555;-67
2021/05/02 11:35:12;;;;;;;4.37;2.03;;;11.10;99.90;;;;;;5093508;28;20917;-67
2021/05/02 11:38:00;;;;;;;2.87;1.60;;;11.70;99.90;;;;;;5093873;28;20404;-68
2021/05/02 11:40:26;;;;;;;6.50;2.63;;;11.20;99.90;;;;;;5093757;28;20445;-67
2021/05/02 11:42:55;;;;;;;3.67;2.23;;;11.10;99.90;;;;;;5093664;28;20484;-68
2021/05/02 11:45:23;;;;;;;6.10;2.00;;;12.00;99.90;;;;;;5094156;28;20188;-67
2021/05/02 11:47:49;;;;;;;3.80;2.00;;;11.10;99.90;;;;;;5093533;28;20488;-67
2021/05/02 11:50:16;;;;;;;2.37;2.07;;;11.00;99.90;;;;;;5092897;28;20394;-68
2021/05/02 11:52:49;;;;;;;3.33;2.20;;;11.40;99.90;;;;;;5093205;28;20405;-67
2021/05/02 11:55:40;;;;;;;3.67;1.90;;;11.30;99.90;;;;;;5093058;28;20495;-67
2021/05/02 11:58:14;;;;;;;2.33;1.67;;;11.90;99.90;;;;;;5093396;28;20393;-67
2021/05/02 12:00:48;;;;;;;4.97;1.80;;;11.80;99.90;;;;;;5093147;28;20437;-68
2021/05/02 12:03:36;;;;;;;3.50;1.77;;;11.70;99.90;;;;;;5093628;28;20406;-67
2021/05/02 12:06:03;;;;;;;5.70;2.83;;;11.20;99.90;;;;;;5093661;28;20378;-68
2021/05/02 12:08:30;;;;;;;3.40;2.20;;;10.90;99.90;;;;;;5092693;28;20444;-67
2021/05/02 12:10:59;;;;;;;3.67;2.17;;;10.80;99.90;;;;;;5092800;28;20406;-67
2021/05/02 12:13:32;;;;;;;3.37;2.30;;;10.90;99.90;;;;;;5092960;28;20937;-68
2021/05/02 12:16:17;;;;;;;2.23;2.00;;;11.10;99.90;;;;;;5093098;28;20889;-68
2021/05/02 12:19:05;;;;;;;6.17;2.27;;;11.50;99.90;;;;;;5092932;28;20406;-68
2021/05/02 12:21:41;;;;;;;2.93;2.10;;;11.40;99.90;;;;;;5093188;28;20945;-68
2021/05/02 12:24:11;;;;;;;2.27;1.97;;;11.30;99.90;;;;;;5092603;28;20738;-68
2021/05/02 12:26:42;;;;;;;3.13;2.07;;;11.60;99.90;;;;;;5093486;28;20473;-68
2021/05/02 12:29:15;;;;;;;6.90;2.63;;;11.60;99.90;;;;;;5093117;28;20382;-68
2021/05/02 12:31:41;;;;;;;3.60;2.30;;;11.40;99.90;;;;;;5093120;28;20473;-68
2021/05/02 12:34:09;;;;;;;4.70;1.87;;;11.60;99.90;;;;;;5092980;28;20509;-68
2021/05/02 12:36:35;;;;;;;5.23;1.80;;;11.20;99.90;;;;;;5093560;28;20435;-67
2021/05/02 12:39:09;;;;;;;2.37;1.40;;;11.10;99.90;;;;;;5093308;28;20379;-68
2021/05/02 12:41:37;;;;;;;5.50;2.57;;;11.40;99.90;;;;;;5092947;28;20430;-68
2021/05/02 12:44:22;;;;;;;1.60;1.40;;;11.50;99.90;;;;;;5092780;28;20414;-68
2021/05/02 12:46:52;;;;;;;5.63;1.83;;;11.90;99.90;;;;;;5092779;28;20401;-68
2021/05/02 12:49:26;;;;;;;3.30;1.70;;;12.00;99.90;;;;;;5093026;28;20389;-68
2021/05/02 12:51:57;;;;;;;3.00;1.73;;;11.70;99.90;;;;;;5092889;28;20378;-68
2021/05/02 12:54:28;;;;;;;3.70;1.93;;;11.30;99.90;;;;;;5092823;28;20413;-68
2021/05/02 12:57:06;;;;;;;1.60;1.50;;;11.10;99.90;;;;;;5091396;28;20458;-68
2021/05/02 13:02:15;;;;;;;3.33;1.70;;;11.50;99.90;;;;;;5094367;28;20898;-66
2021/05/02 13:04:46;;;;;;;2.80;1.63;;;11.10;99.90;;;;;;5096399;28;20466;-67